KRKW/RKW METAR and TAF weather

Enter ICAO airport designator
Station Type Date Time Source
KRKW METAR 2019/02/17 16:15 UTC NOAA

KRKW 171615Z AUTO 15003KT M1/4SM FG OVC002 05/05 A2987 RMK A01


Station Type Date Time Source
KRKW Decoded METAR 2019/02/17 16:15 UTC NOAA

Station name not available
Feb 17, 2019 - 11:15 AM EST / 2019.02.17 1615 UTC
Wind: from the SSE (150 degrees) at 3 MPH (3 KT):0
Visibility: less than 1/4 mile(s):1
Sky conditions: overcast
Weather: fog
Temperature: 41 F (5 C)
Dew Point: 41 F (5 C)
Relative Humidity: 100%
Pressure (altimeter): 29.87 in. Hg (1011 hPa)
ob: KRKW 171615Z AUTO 15003KT M1/4SM FG OVC002 05/05 A2987 RMK A01
cycle: 16

Station Type Date Time Source
KRKW TAF 2009/08/31 19:50 UTC NOAA

METAR KRKW 311950Z AUTO VRB05KT 10SM CLR 25/13 A3010
RMK AO1 T02500133 $


Example: see airport list